createdAt,value
2022-10-29T00:00:47.695Z,44.32
2022-10-29T00:03:14.158Z,44.28
2022-10-29T00:05:40.459Z,44.31
2022-10-29T00:08:06.731Z,44.45
2022-10-29T00:10:33.210Z,44.23
2022-10-29T00:13:03.252Z,44.36
2022-10-29T00:15:29.550Z,44.40
2022-10-29T00:17:56.452Z,44.35
2022-10-29T00:20:24.186Z,44.42
2022-10-29T00:22:53.487Z,44.41
2022-10-29T00:25:19.961Z,44.36
2022-10-29T00:27:46.199Z,44.54
2022-10-29T00:30:12.869Z,44.55
2022-10-29T00:32:39.268Z,44.46
2022-10-29T00:35:05.883Z,44.60
2022-10-29T00:37:32.222Z,44.57
2022-10-29T00:39:58.459Z,44.55
2022-10-29T00:42:24.753Z,44.46
2022-10-29T00:44:51.252Z,44.51
2022-10-29T00:47:23.378Z,44.52
2022-10-29T00:50:10.649Z,44.42
2022-10-29T00:52:39.193Z,44.46
2022-10-29T00:55:07.120Z,44.49
2022-10-29T00:57:38.766Z,44.65
2022-10-29T01:00:05.395Z,44.65
2022-10-29T01:02:33.141Z,44.76
2022-10-29T01:05:00.735Z,44.62
2022-10-29T01:07:29.739Z,44.61
2022-10-29T01:09:57.235Z,44.62
2022-10-29T01:12:32.642Z,44.74
2022-10-29T01:15:13.541Z,44.73
2022-10-29T01:17:39.738Z,44.72
2022-10-29T01:20:09.241Z,44.67
2022-10-29T01:22:44.932Z,44.66
2022-10-29T01:25:30.386Z,44.81
2022-10-29T01:28:03.324Z,44.86
2022-10-29T01:30:43.383Z,44.87
2022-10-29T01:33:17.398Z,44.86
2022-10-29T01:36:07.795Z,44.79
2022-10-29T01:38:38.450Z,44.97
2022-10-29T01:41:07.645Z,44.77
2022-10-29T01:43:33.837Z,44.85
2022-10-29T01:46:05.476Z,44.76
2022-10-29T01:48:34.094Z,44.81
2022-10-29T01:51:02.883Z,44.60
2022-10-29T01:53:30.510Z,44.85
2022-10-29T01:55:56.797Z,44.88
2022-10-29T01:58:24.970Z,44.83
2022-10-29T02:01:09.826Z,44.81
2022-10-29T02:03:36.122Z,44.83
2022-10-29T02:06:23.069Z,44.79
2022-10-29T02:08:52.092Z,44.93
2022-10-29T02:11:23.632Z,44.93
2022-10-29T02:13:54.046Z,44.95
2022-10-29T02:16:20.875Z,44.95
2022-10-29T02:18:49.070Z,44.66
2022-10-29T02:21:16.408Z,44.87
2022-10-29T02:23:42.692Z,44.82
2022-10-29T02:26:09.182Z,45.07
2022-10-29T02:28:35.466Z,45.21
2022-10-29T02:31:01.732Z,44.99
2022-10-29T02:33:28.261Z,45.00
2022-10-29T02:35:54.651Z,45.16
2022-10-29T02:38:21.084Z,45.11
2022-10-29T02:40:47.731Z,45.14
2022-10-29T02:43:17.177Z,45.17
2022-10-29T02:45:43.462Z,44.93
2022-10-29T02:48:09.679Z,45.14
2022-10-29T02:50:37.422Z,45.05
2022-10-29T02:53:03.694Z,45.00
2022-10-29T02:55:31.311Z,45.18
2022-10-29T02:57:58.026Z,45.13
2022-10-29T03:00:24.593Z,45.16
2022-10-29T03:02:54.242Z,45.17
2022-10-29T03:05:20.816Z,45.06
2022-10-29T03:07:47.112Z,45.31
2022-10-29T03:10:13.398Z,45.25
2022-10-29T03:12:39.625Z,45.27
2022-10-29T03:15:06.311Z,45.33
2022-10-29T03:17:34.156Z,45.41
2022-10-29T03:20:00.596Z,45.27
2022-10-29T03:22:26.820Z,45.48
2022-10-29T03:24:53.227Z,45.41
2022-10-29T03:27:19.660Z,45.53
2022-10-29T03:29:45.932Z,45.47
2022-10-29T03:32:12.332Z,45.75
2022-10-29T03:34:38.592Z,45.57
2022-10-29T03:37:04.894Z,45.66
2022-10-29T03:39:31.296Z,45.53
2022-10-29T03:41:57.505Z,45.67
2022-10-29T03:44:23.732Z,45.53
2022-10-29T03:46:50.397Z,45.56
2022-10-29T03:49:16.665Z,45.70
2022-10-29T03:51:42.934Z,45.73
2022-10-29T03:54:09.136Z,45.40
2022-10-29T03:56:35.408Z,45.56
2022-10-29T03:59:02.014Z,45.63
2022-10-29T04:01:28.418Z,45.72
2022-10-29T04:03:54.747Z,45.53
2022-10-29T04:06:20.964Z,45.69
2022-10-29T04:08:47.404Z,45.45
2022-10-29T04:11:14.065Z,45.82
2022-10-29T04:13:40.463Z,45.89
2022-10-29T04:16:07.205Z,45.88
2022-10-29T04:18:33.484Z,45.67
2022-10-29T04:28:17.567Z,45.80
2022-10-29T04:29:21.470Z,45.74
2022-10-29T04:31:47.915Z,46.04
2022-10-29T04:34:14.348Z,45.97
2022-10-29T04:36:40.795Z,46.18
2022-10-29T04:39:07.916Z,45.95
2022-10-29T04:41:34.928Z,45.99
2022-10-29T04:44:01.395Z,46.14
2022-10-29T04:46:28.015Z,46.00
2022-10-29T04:48:54.380Z,46.16
2022-10-29T04:51:21.726Z,46.36
2022-10-29T04:53:48.371Z,46.20
2022-10-29T04:56:16.342Z,46.04
2022-10-29T04:58:42.751Z,46.25
2022-10-29T05:01:09.104Z,46.22
2022-10-29T05:03:35.503Z,46.38
2022-10-29T05:06:02.804Z,46.47
2022-10-29T05:08:29.252Z,46.34
2022-10-29T05:10:55.759Z,46.22
2022-10-29T05:13:21.971Z,46.35
2022-10-29T05:15:53.323Z,46.14
2022-10-29T05:18:19.920Z,46.25
2022-10-29T05:20:46.170Z,46.27
2022-10-29T05:23:13.556Z,46.00
2022-10-29T05:25:40.526Z,46.05
2022-10-29T05:28:08.145Z,45.93
2022-10-29T05:30:34.611Z,46.18
2022-10-29T05:33:01.072Z,46.24
2022-10-29T05:35:27.364Z,46.24
2022-10-29T05:37:54.375Z,46.43
2022-10-29T05:40:24.005Z,46.44
2022-10-29T05:42:50.383Z,46.50
2022-10-29T05:45:16.844Z,46.50
2022-10-29T05:47:43.136Z,46.58
2022-10-29T05:50:09.744Z,46.42
2022-10-29T05:52:36.051Z,46.64
2022-10-29T05:55:02.475Z,46.43
2022-10-29T05:57:28.903Z,46.31
2022-10-29T05:59:55.236Z,46.64
2022-10-29T06:02:21.898Z,46.63
2022-10-29T06:04:48.318Z,46.30
2022-10-29T06:07:14.724Z,46.41
2022-10-29T06:09:40.936Z,46.61
2022-10-29T06:12:07.414Z,46.43
2022-10-29T06:14:33.690Z,46.50
2022-10-29T06:17:01.267Z,46.66
2022-10-29T06:19:27.512Z,46.44
2022-10-29T06:21:55.281Z,46.62
2022-10-29T06:24:24.168Z,46.61
2022-10-29T06:26:52.940Z,46.71
2022-10-29T06:29:19.149Z,46.51
2022-10-29T06:31:45.473Z,46.57
2022-10-29T06:34:13.455Z,46.80
2022-10-29T06:36:39.671Z,46.58
2022-10-29T06:39:05.904Z,46.69
2022-10-29T06:41:32.152Z,46.61
2022-10-29T06:43:58.578Z,46.61
2022-10-29T06:46:25.002Z,46.55
2022-10-29T06:48:51.218Z,46.74
2022-10-29T06:51:17.492Z,46.79
2022-10-29T06:53:45.015Z,46.90
2022-10-29T06:56:11.227Z,46.59
2022-10-29T06:58:37.431Z,46.66
2022-10-29T07:01:03.770Z,46.69
2022-10-29T07:03:30.250Z,46.55
2022-10-29T07:05:57.404Z,46.93
2022-10-29T07:08:24.136Z,46.83
2022-10-29T07:10:51.394Z,46.89
2022-10-29T07:13:17.650Z,46.71
2022-10-29T07:15:43.873Z,46.84
2022-10-29T07:18:11.409Z,46.83
2022-10-29T07:20:41.830Z,46.85
2022-10-29T07:23:08.561Z,46.80
2022-10-29T07:25:35.493Z,47.06
2022-10-29T07:28:16.095Z,46.90
2022-10-29T07:30:43.119Z,46.93
2022-10-29T07:33:09.827Z,47.07
2022-10-29T07:35:36.190Z,46.78
2022-10-29T07:38:08.793Z,46.95
2022-10-29T07:40:37.196Z,46.71
2022-10-29T07:43:03.668Z,47.10
2022-10-29T07:45:29.926Z,47.11
2022-10-29T07:48:03.432Z,47.14
2022-10-29T07:50:30.573Z,47.04
2022-10-29T07:52:59.170Z,47.15
2022-10-29T07:55:25.912Z,47.02
2022-10-29T07:57:58.826Z,47.03
2022-10-29T08:00:25.837Z,46.98
2022-10-29T08:02:55.528Z,46.94
2022-10-29T08:05:22.521Z,47.03
2022-10-29T08:07:48.797Z,46.96
2022-10-29T08:10:15.678Z,46.78
2022-10-29T08:12:48.529Z,46.81
2022-10-29T08:15:14.953Z,46.93
2022-10-29T08:17:41.204Z,46.88
2022-10-29T08:20:07.855Z,46.89
2022-10-29T08:22:35.287Z,46.79
2022-10-29T08:25:01.597Z,46.69
2022-10-29T08:27:27.811Z,46.67
2022-10-29T08:29:54.052Z,46.65
2022-10-29T08:32:20.367Z,46.61
2022-10-29T08:34:46.613Z,46.58
2022-10-29T08:37:12.889Z,46.48
2022-10-29T08:39:39.092Z,46.26
2022-10-29T08:42:27.335Z,46.61
2022-10-29T08:45:07.609Z,46.60
2022-10-29T08:47:51.875Z,46.51
2022-10-29T08:50:21.016Z,46.60
2022-10-29T08:52:53.311Z,46.48
2022-10-29T08:55:26.963Z,46.49
2022-10-29T08:57:56.557Z,46.53
2022-10-29T09:00:25.360Z,46.59
2022-10-29T09:02:55.785Z,46.65
2022-10-29T09:05:24.875Z,46.66
2022-10-29T09:08:17.346Z,46.79
2022-10-29T09:10:46.573Z,46.72
2022-10-29T09:13:33.015Z,46.53
2022-10-29T09:16:08.541Z,46.80
2022-10-29T09:18:53.716Z,46.73
2022-10-29T09:21:29.582Z,46.61
2022-10-29T09:23:58.854Z,46.41
2022-10-29T09:26:25.067Z,46.38
2022-10-29T09:29:00.460Z,46.30
2022-10-29T09:31:26.857Z,46.36
2022-10-29T09:33:56.549Z,46.45
2022-10-29T09:36:26.489Z,46.62
2022-10-29T09:39:13.791Z,46.41
2022-10-29T09:41:40.610Z,46.47
2022-10-29T09:44:11.574Z,46.28
2022-10-29T09:46:38.249Z,46.25
2022-10-29T09:49:23.945Z,46.40
2022-10-29T09:51:53.790Z,46.22
2022-10-29T09:54:20.633Z,46.14
2022-10-29T09:56:51.670Z,46.29
2022-10-29T09:59:22.770Z,45.94
2022-10-29T10:01:49.323Z,46.44
2022-10-29T10:04:22.387Z,45.98
2022-10-29T10:07:07.137Z,46.04
2022-10-29T10:09:52.688Z,46.21
2022-10-29T10:12:19.970Z,45.93
2022-10-29T10:14:47.265Z,46.00
2022-10-29T10:17:13.639Z,46.09
2022-10-29T10:19:44.329Z,45.98
2022-10-29T10:22:18.738Z,45.69
2022-10-29T10:24:45.012Z,45.81
2022-10-29T10:30:04.109Z,45.63
2022-10-29T10:32:31.057Z,45.42
2022-10-29T10:34:57.566Z,45.33
2022-10-29T10:37:25.199Z,45.71
2022-10-29T10:39:54.898Z,45.51
2022-10-29T10:42:28.763Z,45.50
2022-10-29T10:44:57.853Z,45.21
2022-10-29T10:47:27.499Z,45.27
2022-10-29T10:49:53.920Z,45.26
2022-10-29T10:52:38.105Z,45.41
2022-10-29T10:55:07.584Z,45.41
2022-10-29T10:57:39.663Z,45.28
2022-10-29T11:00:18.548Z,45.33
2022-10-29T11:02:50.898Z,45.23
2022-10-29T11:05:21.272Z,44.91
2022-10-29T11:07:52.180Z,45.24
2022-10-29T11:10:21.105Z,45.29
2022-10-29T11:12:52.398Z,45.38
2022-10-29T11:15:39.078Z,45.17
2022-10-29T11:20:49.502Z,44.84
2022-10-29T11:23:23.195Z,45.07
2022-10-29T11:25:54.472Z,44.96
2022-10-29T11:28:29.410Z,44.58
2022-10-29T11:31:13.852Z,44.65
2022-10-29T11:33:59.961Z,44.56
2022-10-29T11:36:30.053Z,44.15
2022-10-29T11:39:08.597Z,44.39
2022-10-29T11:41:40.893Z,44.22
2022-10-29T11:44:14.531Z,44.34
2022-10-29T11:46:59.629Z,44.14
2022-10-29T11:49:43.041Z,44.24
2022-10-29T11:52:12.041Z,44.32
2022-10-29T11:54:53.744Z,43.94
2022-10-29T11:57:27.445Z,44.25
2022-10-29T12:00:24.091Z,44.15
2022-10-29T12:03:09.005Z,44.24
2022-10-29T12:05:40.226Z,44.07
2022-10-29T12:08:12.666Z,43.74
2022-10-29T12:11:05.309Z,43.53
2022-10-29T12:13:50.713Z,42.71
2022-10-29T12:16:30.781Z,43.29
2022-10-29T12:19:12.198Z,42.94
2022-10-29T12:21:38.619Z,43.21
2022-10-29T12:24:17.090Z,43.58
2022-10-29T12:26:58.960Z,43.30
2022-10-29T12:29:47.776Z,43.17
2022-10-29T12:32:19.721Z,43.13
2022-10-29T12:34:51.924Z,42.99
2022-10-29T12:37:25.382Z,43.18
2022-10-29T12:40:00.587Z,42.41
2022-10-29T12:42:27.633Z,42.27
2022-10-29T12:44:58.499Z,42.90
2022-10-29T12:47:43.734Z,43.10
2022-10-29T12:50:26.998Z,42.77
2022-10-29T12:53:01.563Z,42.64
2022-10-29T12:55:28.142Z,41.99
2022-10-29T12:57:54.456Z,41.97
2022-10-29T13:00:23.764Z,42.31
2022-10-29T13:02:52.401Z,42.30
2022-10-29T13:05:24.555Z,42.02
2022-10-29T13:07:57.162Z,41.96
2022-10-29T13:10:23.965Z,42.25
2022-10-29T13:12:53.209Z,41.75
2022-10-29T13:15:22.044Z,41.74
2022-10-29T13:17:49.907Z,42.08
2022-10-29T13:20:22.145Z,41.83
2022-10-29T13:22:51.544Z,41.93
2022-10-29T13:25:42.925Z,41.92
2022-10-29T13:28:09.167Z,42.06
2022-10-29T13:30:37.015Z,41.95
2022-10-29T13:33:29.540Z,42.07
2022-10-29T13:36:21.458Z,42.24
2022-10-29T13:39:04.485Z,42.22
2022-10-29T13:41:43.889Z,42.65
2022-10-29T13:44:13.306Z,42.49
2022-10-29T13:46:57.562Z,42.51
2022-10-29T13:49:27.400Z,42.53
2022-10-29T13:52:02.697Z,42.49
2022-10-29T13:54:37.514Z,42.11
2022-10-29T13:57:14.480Z,42.33
2022-10-29T13:59:42.886Z,42.41
2022-10-29T14:02:19.490Z,41.94
2022-10-29T14:04:49.007Z,41.89
2022-10-29T14:07:18.491Z,41.75
2022-10-29T14:09:47.394Z,41.98
2022-10-29T14:12:17.651Z,41.95
2022-10-29T14:15:03.910Z,41.75
2022-10-29T14:17:31.746Z,41.70
2022-10-29T14:19:58.029Z,41.46
2022-10-29T14:22:40.616Z,41.17
2022-10-29T14:25:30.009Z,41.17
2022-10-29T14:28:17.231Z,41.17
2022-10-29T14:30:44.452Z,41.11
2022-10-29T14:33:17.979Z,40.98
2022-10-29T14:35:46.659Z,41.05
2022-10-29T14:38:13.667Z,40.71
2022-10-29T14:40:40.190Z,40.98
2022-10-29T14:43:06.489Z,40.81
2022-10-29T14:45:32.838Z,40.64
2022-10-29T14:48:01.204Z,40.72
2022-10-29T14:50:29.974Z,40.59
2022-10-29T14:52:59.289Z,40.83
2022-10-29T14:55:33.818Z,41.01
2022-10-29T14:58:12.485Z,40.88
2022-10-29T15:00:47.537Z,40.75
2022-10-29T15:03:16.092Z,41.09
2022-10-29T15:05:42.412Z,40.96
2022-10-29T15:08:09.028Z,40.69
2022-10-29T15:10:52.069Z,40.61
2022-10-29T15:13:31.153Z,40.64
2022-10-29T15:16:06.605Z,40.66
2022-10-29T15:18:33.754Z,40.83
2022-10-29T15:21:00.297Z,40.73
2022-10-29T15:23:27.862Z,40.72
2022-10-29T15:25:58.478Z,40.81
2022-10-29T15:28:26.688Z,40.71
2022-10-29T15:30:54.141Z,40.83
2022-10-29T15:33:40.535Z,40.65
2022-10-29T15:36:06.956Z,40.73
2022-10-29T15:38:34.276Z,40.97
2022-10-29T15:41:12.686Z,40.85
2022-10-29T15:43:51.648Z,41.06
2022-10-29T15:46:22.127Z,41.34
2022-10-29T15:48:50.483Z,41.40
2022-10-29T15:51:17.092Z,41.36
2022-10-29T15:53:43.363Z,41.25
2022-10-29T15:56:13.224Z,41.19
2022-10-29T15:58:40.295Z,41.65
2022-10-29T16:01:06.677Z,41.62
2022-10-29T16:03:35.511Z,41.72
2022-10-29T16:06:05.927Z,41.42
2022-10-29T16:08:40.654Z,41.78
2022-10-29T16:11:11.033Z,41.48
2022-10-29T16:13:37.435Z,41.83
2022-10-29T16:16:04.314Z,41.97
2022-10-29T16:18:30.555Z,41.53
2022-10-29T16:20:57.914Z,42.03
2022-10-29T16:23:24.320Z,41.81
2022-10-29T16:25:50.801Z,42.09
2022-10-29T16:28:17.072Z,42.05
2022-10-29T16:30:45.423Z,42.26
2022-10-29T16:33:11.939Z,41.97
2022-10-29T16:35:38.409Z,42.21
2022-10-29T16:38:04.830Z,42.07
2022-10-29T16:40:31.100Z,42.09
2022-10-29T16:42:57.749Z,42.33
2022-10-29T16:45:25.970Z,42.10
2022-10-29T16:47:52.448Z,42.44
2022-10-29T16:50:23.109Z,42.27
2022-10-29T16:52:56.321Z,42.64
2022-10-29T16:55:22.636Z,42.58
2022-10-29T16:57:48.874Z,42.57
2022-10-29T17:00:15.266Z,42.63
2022-10-29T17:02:44.669Z,42.64
2022-10-29T17:05:11.623Z,42.68
2022-10-29T17:07:39.037Z,42.55
2022-10-29T17:10:05.557Z,42.77
2022-10-29T17:12:32.514Z,42.82
2022-10-29T17:14:58.802Z,42.59
2022-10-29T17:17:25.022Z,42.64
2022-10-29T17:19:52.341Z,42.63
2022-10-29T17:22:18.625Z,42.70
2022-10-29T17:24:45.564Z,42.93
2022-10-29T17:27:12.440Z,42.69
2022-10-29T17:29:38.826Z,43.05
2022-10-29T17:32:06.088Z,43.14
2022-10-29T17:34:32.540Z,42.82
2022-10-29T17:36:59.155Z,42.96
2022-10-29T17:39:25.535Z,42.95
2022-10-29T17:41:52.105Z,43.00
2022-10-29T17:44:18.483Z,42.81
2022-10-29T17:46:44.838Z,43.09
2022-10-29T17:49:11.122Z,42.92
2022-10-29T17:51:37.444Z,42.89
2022-10-29T17:54:03.732Z,43.15
2022-10-29T17:56:34.309Z,43.36
2022-10-29T17:59:00.974Z,43.14
2022-10-29T18:01:27.346Z,43.21
2022-10-29T18:03:53.640Z,43.02
2022-10-29T18:06:19.858Z,43.17
2022-10-29T18:08:46.142Z,43.30
2022-10-29T18:11:15.140Z,43.17
2022-10-29T18:13:42.499Z,43.33
2022-10-29T18:16:09.611Z,43.34
2022-10-29T18:18:48.093Z,43.21
2022-10-29T18:21:23.421Z,43.24
2022-10-29T18:23:49.751Z,43.28
2022-10-29T18:26:19.028Z,43.41
2022-10-29T18:28:45.356Z,43.33
2022-10-29T18:31:11.597Z,43.39
2022-10-29T18:33:38.025Z,43.49
2022-10-29T18:36:07.200Z,43.27
2022-10-29T18:38:33.656Z,43.51
2022-10-29T18:40:59.972Z,43.54
2022-10-29T18:43:26.784Z,43.46
2022-10-29T18:46:03.704Z,43.62
2022-10-29T18:51:04.250Z,43.41
2022-10-29T18:53:30.880Z,43.44
2022-10-29T18:55:57.402Z,43.46
2022-10-29T18:58:23.743Z,43.40
2022-10-29T19:00:50.025Z,43.60
2022-10-29T19:03:16.426Z,43.66
2022-10-29T19:05:44.774Z,43.59
2022-10-29T19:08:11.826Z,43.59
2022-10-29T19:10:39.166Z,43.60
2022-10-29T19:13:05.813Z,43.46
2022-10-29T19:15:33.345Z,43.53
2022-10-29T19:18:00.003Z,43.42
2022-10-29T19:20:27.031Z,43.50
2022-10-29T19:22:54.382Z,43.55
2022-10-29T19:25:20.848Z,43.57
2022-10-29T19:27:47.235Z,43.49
2022-10-29T19:30:13.562Z,43.59
2022-10-29T19:32:40.807Z,43.54
2022-10-29T19:35:07.533Z,43.60
2022-10-29T19:37:33.801Z,43.65
2022-10-29T19:40:00.072Z,43.58
2022-10-29T19:42:26.307Z,43.64
2022-10-29T19:44:55.491Z,43.70
2022-10-29T19:47:22.728Z,43.71
2022-10-29T19:49:48.936Z,43.65
2022-10-29T19:52:15.173Z,43.71
2022-10-29T19:54:41.456Z,43.62
2022-10-29T19:57:07.705Z,43.72
2022-10-29T19:59:33.988Z,43.82
2022-10-29T20:02:00.672Z,43.91
2022-10-29T20:04:27.228Z,43.94
2022-10-29T20:06:53.650Z,43.94
2022-10-29T20:09:20.081Z,43.86
2022-10-29T20:11:46.313Z,43.80
2022-10-29T20:14:12.628Z,43.83
2022-10-29T20:16:40.543Z,44.03
2022-10-29T20:19:07.104Z,43.87
2022-10-29T20:21:33.375Z,44.06
2022-10-29T20:23:59.604Z,43.97
2022-10-29T20:26:25.887Z,44.12
2022-10-29T20:28:52.356Z,43.94
2022-10-29T20:31:19.399Z,44.08
2022-10-29T20:33:49.524Z,44.04
2022-10-29T20:36:16.012Z,44.00
2022-10-29T20:38:42.266Z,44.09
2022-10-29T20:41:08.555Z,44.08
2022-10-29T20:43:34.899Z,44.24
2022-10-29T20:46:02.968Z,44.06
2022-10-29T20:48:30.163Z,44.10
2022-10-29T20:50:56.474Z,44.07
2022-10-29T20:53:22.739Z,44.21
2022-10-29T20:55:49.695Z,44.21
2022-10-29T20:58:15.921Z,44.15
2022-10-29T21:00:42.340Z,44.27
2022-10-29T21:03:11.176Z,44.23
2022-10-29T21:05:37.451Z,44.30
2022-10-29T21:08:03.732Z,44.35
2022-10-29T21:10:30.045Z,44.33
2022-10-29T21:12:56.590Z,44.16
2022-10-29T21:15:23.074Z,44.29
2022-10-29T21:17:49.317Z,44.08
2022-10-29T21:20:15.558Z,44.15
2022-10-29T21:22:41.781Z,44.23
2022-10-29T21:25:08.450Z,44.22
2022-10-29T21:27:34.752Z,44.11
2022-10-29T21:30:01.036Z,44.08
2022-10-29T21:32:27.366Z,44.20
2022-10-29T21:34:53.771Z,44.12
2022-10-29T21:37:19.980Z,44.13
2022-10-29T21:39:46.196Z,43.98
2022-10-29T21:42:12.443Z,43.98
2022-10-29T21:44:38.714Z,44.03
2022-10-29T21:47:05.013Z,44.07
2022-10-29T21:49:31.237Z,43.99
2022-10-29T21:51:57.575Z,44.13
2022-10-29T21:54:25.836Z,44.06
2022-10-29T21:56:54.537Z,44.15
2022-10-29T21:59:20.973Z,44.11
2022-10-29T22:01:47.427Z,44.13
2022-10-29T22:04:13.881Z,44.12
2022-10-29T22:06:40.089Z,44.15
2022-10-29T22:09:06.549Z,44.16
2022-10-29T22:11:32.789Z,44.32
2022-10-29T22:13:59.156Z,44.21
2022-10-29T22:16:25.457Z,44.30
2022-10-29T22:18:52.705Z,44.36
2022-10-29T22:21:23.537Z,44.46
2022-10-29T22:23:50.910Z,44.40
2022-10-29T22:26:18.164Z,44.34
2022-10-29T22:28:47.258Z,44.30
2022-10-29T22:31:15.167Z,44.37
2022-10-29T22:33:44.174Z,44.38
2022-10-29T22:36:18.368Z,44.31
2022-10-29T22:38:45.220Z,44.34
2022-10-29T22:41:12.782Z,44.26
2022-10-29T22:43:39.071Z,44.12
2022-10-29T22:46:06.297Z,44.33
2022-10-29T22:48:32.617Z,44.33
2022-10-29T22:51:03.037Z,44.11
2022-10-29T22:53:29.747Z,44.25
2022-10-29T22:55:56.057Z,44.30
2022-10-29T22:58:22.654Z,44.36
2022-10-29T23:00:49.055Z,44.17
2022-10-29T23:03:15.533Z,44.17
2022-10-29T23:05:41.753Z,44.28
2022-10-29T23:08:08.192Z,44.13
2022-10-29T23:10:35.710Z,44.17
2022-10-29T23:13:01.970Z,44.17
2022-10-29T23:15:28.173Z,44.28
2022-10-29T23:17:54.709Z,44.27
2022-10-29T23:20:21.255Z,44.29
2022-10-29T23:22:47.666Z,44.23
2022-10-29T23:25:13.960Z,44.20
2022-10-29T23:27:40.403Z,44.22
2022-10-29T23:30:07.069Z,44.16
2022-10-29T23:32:33.333Z,44.18
2022-10-29T23:34:59.576Z,44.20
2022-10-29T23:37:26.000Z,44.29
2022-10-29T23:39:52.484Z,44.16
2022-10-29T23:42:18.862Z,44.23
2022-10-29T23:44:45.170Z,44.41
2022-10-29T23:47:11.648Z,44.21
2022-10-29T23:49:37.884Z,44.41
2022-10-29T23:52:04.167Z,44.50
2022-10-29T23:54:30.576Z,44.17
2022-10-29T23:56:57.030Z,44.45
2022-10-29T23:59:23.652Z,44.24
